Time;durP1;ratioP1;P1;durP2;ratioP2;P2;SDS_P1;SDS_P2;PMS_P1;PMS_P2;Temp;Humidity;BMP_temperature;BMP_pressure;BME280_temperature;BME280_humidity;BME280_pressure;Samples;Min_cycle;Max_cycle;Signal;HPM_P1;HPM_P2
2023/06/18 00:01:20;;;;;;;10.35;9.45;;;15.40;97.30;;;16.39;61.75;97731.69;5195968;28;20218;-67
2023/06/18 00:03:54;;;;;;;11.07;10.13;;;15.40;97.60;;;16.39;61.87;97731.69;5196430;28;20633;-67
2023/06/18 00:06:28;;;;;;;10.93;10.02;;;15.40;97.50;;;16.35;62.10;97729.88;5198633;28;20233;-67
2023/06/18 00:09:01;;;;;;;10.93;9.93;;;15.40;97.80;;;16.31;62.14;97733.16;5196420;28;20218;-66
2023/06/18 00:11:34;;;;;;;10.02;9.23;;;15.30;97.90;;;16.33;62.17;97726.34;5197095;28;20602;-66
2023/06/18 00:14:07;;;;;;;10.13;9.35;;;15.30;97.80;;;16.32;61.85;97722.03;5192895;28;20229;-66
2023/06/18 00:16:40;;;;;;;10.05;9.05;;;15.30;97.60;;;16.30;61.41;97726.25;5197636;28;20298;-66
2023/06/18 00:19:15;;;;;;;9.43;8.63;;;15.20;97.20;;;16.20;61.48;97732.81;5192504;28;20218;-66
2023/06/18 00:21:48;;;;;;;9.93;9.02;;;15.20;97.20;;;16.16;60.99;97734.41;5199691;28;20236;-66
2023/06/18 00:24:21;;;;;;;10.25;9.35;;;15.20;97.10;;;16.06;61.93;97726.34;5189793;28;20272;-67
2023/06/18 00:26:55;;;;;;;10.73;9.82;;;15.00;97.60;;;15.97;62.41;97732.06;5195680;28;20713;-66
2023/06/18 00:29:29;;;;;;;10.82;9.82;;;14.90;97.90;;;15.94;62.46;97721.66;5197542;28;20230;-66
2023/06/18 00:32:02;;;;;;;10.68;9.77;;;14.90;98.10;;;15.90;62.32;97719.78;5195145;28;20708;-67
2023/06/18 00:34:37;;;;;;;10.07;9.27;;;14.90;98.20;;;15.86;62.95;97715.34;5198293;28;20260;-66
2023/06/18 00:37:10;;;;;;;11.55;10.60;;;14.90;98.40;;;15.75;63.91;97715.84;5198224;28;20282;-67
2023/06/18 00:39:44;;;;;;;11.18;10.20;;;14.80;99.20;;;15.71;63.83;97713.13;5198690;28;20234;-66
2023/06/18 00:42:18;;;;;;;11.02;10.15;;;14.70;99.40;;;15.69;64.53;97715.66;5198504;28;20222;-66
2023/06/18 00:44:52;;;;;;;11.52;10.43;;;14.70;99.70;;;15.62;64.83;97708.47;5197361;28;20683;-67
2023/06/18 00:47:26;;;;;;;11.32;10.25;;;14.60;99.80;;;15.65;64.59;97713.75;5200484;28;20291;-67
2023/06/18 00:50:02;;;;;;;11.57;10.68;;;14.60;99.80;;;15.62;64.92;97713.63;5203696;28;20249;-66
2023/06/18 00:52:37;;;;;;;11.82;10.82;;;14.60;99.80;;;15.68;64.46;97713.91;5202892;28;20295;-66
2023/06/18 00:55:12;;;;;;;11.15;10.25;;;14.70;99.60;;;15.66;64.64;97710.34;5198981;28;20772;-66
2023/06/18 00:57:49;;;;;;;11.35;10.38;;;14.70;99.60;;;15.50;65.14;97706.34;5207373;28;20281;-67
2023/06/18 01:00:24;;;;;;;11.00;10.02;;;14.60;99.80;;;15.49;64.82;97706.31;5200870;28;20237;-66
2023/06/18 01:02:59;;;;;;;11.38;10.48;;;14.50;99.90;;;15.47;65.73;97705.38;5201251;28;20585;-66
2023/06/18 01:05:35;;;;;;;12.05;11.05;;;14.40;99.90;;;15.33;65.73;97705.75;5200714;28;20731;-66
2023/06/18 01:08:12;;;;;;;11.32;10.43;;;14.30;99.90;;;15.27;66.19;97710.69;5202165;28;20225;-67
2023/06/18 01:10:46;;;;;;;12.10;11.00;;;14.30;99.90;;;15.05;66.91;97700.41;5204026;28;20230;-66
2023/06/18 01:13:19;;;;;;;11.10;10.20;;;14.20;99.90;;;15.01;67.38;97709.72;5195133;28;20292;-66
2023/06/18 01:15:52;;;;;;;12.23;11.20;;;14.10;99.90;;;15.01;67.52;97704.59;5199174;28;20275;-67
2023/06/18 01:18:26;;;;;;;11.48;10.48;;;14.10;99.90;;;15.02;67.12;97701.22;5203197;28;20249;-66
2023/06/18 01:21:05;;;;;;;12.38;11.27;;;14.10;99.90;;;14.79;68.17;97709.75;5199770;28;20275;-66
2023/06/18 01:23:49;;;;;;;12.27;11.02;;;14.00;99.90;;;14.84;68.13;97703.94;5201880;28;20651;-66
2023/06/18 01:26:26;;;;;;;12.65;11.55;;;14.00;99.90;;;14.73;69.36;97701.78;5198972;28;20237;-67
2023/06/18 01:29:00;;;;;;;12.25;11.05;;;14.00;99.90;;;14.83;68.47;97703.91;5201594;28;20213;-66
2023/06/18 01:31:36;;;;;;;11.20;10.30;;;14.00;99.90;;;14.84;68.25;97701.38;5200546;28;20615;-66
2023/06/18 01:34:09;;;;;;;11.85;10.85;;;14.00;99.90;;;14.85;68.15;97700.59;5200275;28;20525;-67
2023/06/18 01:36:53;;;;;;;12.88;11.77;;;14.00;99.90;;;14.80;68.63;97696.06;5201099;28;20237;-66
2023/06/18 01:39:36;;;;;;;12.55;11.38;;;13.90;99.90;;;14.79;69.15;97705.50;5200093;28;20742;-66
2023/06/18 01:42:16;;;;;;;12.05;11.05;;;13.90;99.90;;;14.67;69.02;97705.00;5197406;28;20775;-66
2023/06/18 01:44:57;;;;;;;12.52;11.52;;;13.80;99.90;;;14.64;69.19;97707.47;5201953;28;20240;-66
2023/06/18 01:47:31;;;;;;;12.30;11.20;;;13.80;99.90;;;14.67;68.81;97705.00;5201635;28;20245;-66
2023/06/18 01:50:06;;;;;;;11.57;10.68;;;13.80;99.90;;;14.70;69.72;97706.81;5199740;28;20228;-66
2023/06/18 01:52:44;;;;;;;11.18;10.27;;;13.80;99.90;;;14.75;68.85;97702.75;5203343;28;20232;-66
2023/06/18 01:55:19;;;;;;;11.65;10.75;;;13.90;99.90;;;14.78;68.96;97697.72;5198238;28;20958;-65
2023/06/18 01:57:52;;;;;;;11.63;10.68;;;13.90;99.90;;;14.75;68.82;97693.31;5196125;28;20241;-65
2023/06/18 02:00:26;;;;;;;12.48;11.38;;;13.80;99.90;;;14.64;68.52;97689.47;5200696;28;20291;-65
2023/06/18 02:02:59;;;;;;;12.15;11.05;;;13.70;99.90;;;14.68;69.41;97691.34;5199857;28;20337;-65
2023/06/18 02:05:32;;;;;;;12.23;11.00;;;13.70;99.90;;;14.63;69.66;97690.28;5200459;28;20664;-67
2023/06/18 02:08:07;;;;;;;11.07;10.07;;;13.70;99.90;;;14.54;69.24;97684.78;5200707;28;20221;-66
2023/06/18 02:10:40;;;;;;;11.98;10.98;;;13.70;99.90;;;14.39;70.83;97701.34;5198545;28;20221;-66
2023/06/18 02:13:13;;;;;;;11.88;10.88;;;13.60;99.90;;;14.38;70.65;97691.88;5202890;28;20218;-66
2023/06/18 02:15:47;;;;;;;12.35;11.25;;;13.50;99.90;;;14.46;71.02;97701.59;5199082;28;20690;-67
2023/06/18 02:18:20;;;;;;;12.10;11.00;;;13.60;99.90;;;14.47;70.14;97703.34;5199614;28;20230;-67
2023/06/18 02:20:53;;;;;;;12.90;11.80;;;13.60;99.90;;;14.36;70.56;97698.63;5198199;28;20287;-66
2023/06/18 02:23:28;;;;;;;12.52;11.45;;;13.50;99.90;;;14.40;70.33;97695.38;5198476;28;20214;-67
2023/06/18 02:26:03;;;;;;;12.27;11.27;;;13.50;99.90;;;14.44;70.53;97693.78;5199547;28;20269;-66
2023/06/18 02:28:37;;;;;;;12.07;10.98;;;13.50;99.90;;;14.38;70.35;97701.28;5199986;28;20225;-66
2023/06/18 02:31:10;;;;;;;12.90;11.75;;;13.50;99.90;;;14.35;71.04;97704.59;5198436;28;20222;-66
2023/06/18 02:33:43;;;;;;;12.57;11.45;;;13.50;99.90;;;14.32;71.22;97707.06;5200319;28;20233;-66
2023/06/18 02:36:17;;;;;;;10.90;9.95;;;13.40;99.90;;;14.30;70.62;97703.53;5194481;28;20291;-66
2023/06/18 02:38:52;;;;;;;11.75;10.85;;;13.40;99.90;;;14.35;71.14;97702.03;5197332;28;20251;-67
2023/06/18 02:41:26;;;;;;;13.15;11.93;;;13.50;99.90;;;14.25;70.73;97704.16;5198705;28;20229;-68
2023/06/18 02:43:59;;;;;;;11.98;10.98;;;13.40;99.90;;;14.26;71.66;97706.81;5201083;28;20232;-66
2023/06/18 02:46:33;;;;;;;12.80;11.70;;;13.30;99.90;;;14.25;71.02;97699.94;5200563;28;20664;-67
2023/06/18 02:49:06;;;;;;;12.85;11.85;;;13.30;99.90;;;14.17;71.31;97691.91;5198604;28;20221;-67
2023/06/18 02:51:39;;;;;;;12.27;11.07;;;13.20;99.90;;;14.12;72.14;97692.53;5201855;28;20233;-67
2023/06/18 02:54:13;;;;;;;11.90;11.00;;;13.20;99.90;;;14.11;72.01;97693.34;5197826;28;20247;-67
2023/06/18 02:56:46;;;;;;;12.30;11.30;;;13.20;99.90;;;14.10;71.63;97700.16;5198577;28;20213;-67
2023/06/18 02:59:19;;;;;;;12.95;11.68;;;13.10;99.90;;;14.09;71.55;97688.13;5197314;28;20284;-67
2023/06/18 03:01:53;;;;;;;12.80;11.70;;;13.20;99.90;;;14.07;72.42;97699.16;5199896;28;20226;-67
2023/06/18 03:04:26;;;;;;;11.65;10.63;;;13.10;99.90;;;14.06;72.21;97697.41;5198156;28;20238;-67
2023/06/18 03:07:00;;;;;;;12.30;11.32;;;13.10;99.90;;;14.07;72.32;97694.91;5196364;28;20225;-67
2023/06/18 03:09:35;;;;;;;12.25;11.15;;;13.10;99.90;;;14.11;72.24;97690.78;5196769;28;20268;-67
2023/06/18 03:12:09;;;;;;;11.70;10.80;;;13.10;99.90;;;14.09;72.41;97697.53;5193654;28;20709;-67
2023/06/18 03:14:42;;;;;;;12.13;11.13;;;13.10;99.90;;;14.08;72.12;97698.34;5199877;28;20229;-67
2023/06/18 03:17:15;;;;;;;11.35;10.45;;;13.10;99.90;;;14.07;72.85;97704.31;5198089;28;20654;-67
2023/06/18 03:19:48;;;;;;;12.38;11.27;;;13.10;99.90;;;14.06;73.33;97692.28;5197692;28;20222;-67
2023/06/18 03:22:21;;;;;;;12.35;11.35;;;13.10;99.90;;;14.03;72.84;97693.03;5200351;28;20307;-67
2023/06/18 03:24:56;;;;;;;11.68;10.68;;;13.10;99.90;;;14.02;72.43;97700.66;5196784;28;20234;-66
2023/06/18 03:27:29;;;;;;;11.30;10.40;;;13.00;99.90;;;14.06;71.15;97708.56;5198489;28;20295;-67
2023/06/18 03:30:04;;;;;;;10.98;9.98;;;12.90;99.90;;;14.06;71.11;97707.69;5199299;28;20280;-67
2023/06/18 03:32:37;;;;;;;11.55;10.55;;;12.90;99.90;;;14.03;72.02;97702.44;5199347;28;20312;-67
2023/06/18 03:35:11;;;;;;;10.75;9.85;;;12.90;99.90;;;14.00;71.04;97713.47;5198327;28;20237;-66
2023/06/18 03:37:44;;;;;;;10.85;9.95;;;12.90;99.90;;;13.98;71.57;97713.38;5194545;28;20276;-67
2023/06/18 03:40:19;;;;;;;10.70;9.65;;;12.80;99.90;;;13.94;72.01;97708.94;5199292;28;20226;-68
2023/06/18 03:42:52;;;;;;;11.18;10.15;;;12.80;99.90;;;13.88;72.16;97700.13;5194049;28;20248;-68
2023/06/18 03:45:25;;;;;;;12.13;11.13;;;12.70;99.90;;;13.85;71.93;97699.97;5195572;28;20261;-67
2023/06/18 03:47:58;;;;;;;11.00;10.18;;;12.70;99.90;;;13.83;72.43;97707.63;5200733;28;20723;-67
2023/06/18 03:50:31;;;;;;;12.38;11.38;;;12.80;99.90;;;13.85;72.48;97708.56;5200493;28;20237;-67
2023/06/18 03:53:05;;;;;;;11.02;10.13;;;12.80;99.90;;;13.85;72.51;97713.72;5198967;28;20226;-67
2023/06/18 03:55:43;;;;;;;11.65;10.75;;;12.80;99.90;;;13.91;72.28;97713.09;5200579;28;20615;-68
2023/06/18 03:58:18;;;;;;;11.90;10.82;;;12.90;99.90;;;13.94;73.29;97716.66;5191507;28;20217;-67
2023/06/18 04:00:51;;;;;;;11.23;10.25;;;13.00;99.90;;;14.05;72.64;97717.13;5194171;28;20744;-67
2023/06/18 04:03:24;;;;;;;11.77;10.75;;;13.00;99.90;;;13.97;71.88;97719.34;5200002;28;20214;-67
2023/06/18 04:05:58;;;;;;;11.93;10.95;;;12.90;99.90;;;13.67;73.18;97718.94;5197804;28;20272;-67
2023/06/18 04:08:31;;;;;;;11.70;10.80;;;12.70;99.90;;;13.78;73.17;97721.09;5190275;28;20257;-67
2023/06/18 04:11:06;;;;;;;12.07;11.10;;;12.80;99.90;;;13.88;72.31;97721.56;5194935;28;20233;-67
2023/06/18 04:13:39;;;;;;;12.18;11.18;;;12.90;99.90;;;13.96;72.77;97726.97;5197745;28;20229;-67
2023/06/18 04:16:12;;;;;;;11.27;10.27;;;13.00;99.90;;;14.05;71.76;97721.34;5195876;28;20226;-67
2023/06/18 04:18:45;;;;;;;10.98;10.18;;;13.10;99.90;;;14.15;70.93;97720.91;5199836;28;20222;-67
2023/06/18 04:21:18;;;;;;;12.27;11.20;;;13.20;99.90;;;14.19;71.86;97721.13;5197987;28;20226;-68
2023/06/18 04:23:53;;;;;;;12.30;11.20;;;13.20;99.90;;;14.16;71.17;97726.16;5200439;28;20272;-67
2023/06/18 04:26:27;;;;;;;12.57;11.57;;;13.10;99.90;;;14.17;71.21;97727.88;5197900;28;20240;-67
2023/06/18 04:29:00;;;;;;;12.07;10.95;;;13.10;99.90;;;14.20;72.26;97732.28;5198138;28;20518;-67
2023/06/18 04:31:33;;;;;;;12.20;11.10;;;13.20;99.90;;;14.28;72.08;97728.31;5195693;28;20641;-67
2023/06/18 04:34:06;;;;;;;11.88;10.68;;;13.30;99.90;;;14.39;71.25;97729.63;5192602;28;20271;-67
2023/06/18 04:36:40;;;;;;;11.70;10.70;;;13.40;99.90;;;14.46;70.85;97735.03;5195664;28;20697;-67
2023/06/18 04:39:14;;;;;;;11.77;10.88;;;13.40;99.90;;;14.47;71.45;97729.03;5200166;28;20221;-66
2023/06/18 04:41:48;;;;;;;12.02;11.13;;;13.50;99.90;;;14.34;71.25;97723.44;5195905;28;20279;-67
2023/06/18 04:44:21;;;;;;;11.82;10.93;;;13.40;99.90;;;14.62;70.68;97727.09;5191078;28;20271;-67
2023/06/18 04:46:54;;;;;;;11.98;10.98;;;13.80;99.90;;;15.18;70.09;97725.81;5196298;28;20234;-67
2023/06/18 04:49:29;;;;;;;11.75;10.65;;;14.50;99.90;;;15.85;67.24;97719.63;5194773;28;20229;-66
2023/06/18 04:52:02;;;;;;;12.02;11.05;;;15.10;99.90;;;16.48;64.85;97729.41;5196300;28;20231;-67
2023/06/18 04:54:36;;;;;;;11.80;10.80;;;15.70;99.90;;;17.08;62.19;97720.94;5199090;28;20709;-66
2023/06/18 04:57:10;;;;;;;11.63;10.63;;;16.20;99.60;;;17.64;59.50;97720.78;5198095;28;20312;-67
2023/06/18 04:59:43;;;;;;;11.55;10.65;;;16.60;98.10;;;18.21;57.62;97718.00;5197424;28;20225;-67
2023/06/18 05:02:18;;;;;;;11.77;10.77;;;16.90;97.40;;;18.68;56.10;97715.63;5195230;28;20311;-67
2023/06/18 05:04:51;;;;;;;12.55;11.52;;;17.40;96.40;;;19.15;54.03;97710.66;5191723;28;20233;-67
2023/06/18 05:07:25;;;;;;;11.07;10.07;;;17.80;95.10;;;19.53;52.74;97706.25;5198565;28;20240;-67
2023/06/18 05:09:58;;;;;;;12.15;11.10;;;17.80;94.60;;;19.40;52.77;97708.56;5192522;28;20217;-67
2023/06/18 05:12:33;;;;;;;12.63;11.55;;;17.90;94.10;;;19.74;51.42;97703.22;5198377;28;20229;-67
2023/06/18 05:15:08;;;;;;;12.00;11.00;;;18.10;93.50;;;19.92;51.01;97707.88;5195348;28;20225;-67
2023/06/18 05:17:41;;;;;;;11.52;10.52;;;18.20;93.30;;;20.09;50.57;97708.16;5197425;28;20232;-67
2023/06/18 05:20:14;;;;;;;11.93;11.02;;;18.50;92.80;;;20.10;50.41;97709.91;5187152;28;20260;-68
2023/06/18 05:22:48;;;;;;;11.68;10.68;;;18.40;92.40;;;20.47;49.79;97703.59;5193481;28;20229;-68
2023/06/18 05:25:21;;;;;;;11.18;10.32;;;18.80;92.10;;;20.77;49.02;97693.66;5193880;28;20230;-68
2023/06/18 05:27:56;;;;;;;11.63;10.73;;;19.00;91.50;;;21.20;48.01;97699.41;5194377;28;20221;-68
2023/06/18 05:30:29;;;;;;;11.82;10.93;;;19.30;91.20;;;21.37;47.31;97703.13;5195430;28;20236;-68
2023/06/18 05:33:02;;;;;;;11.02;10.10;;;19.60;90.50;;;21.65;46.42;97703.44;5201337;28;20229;-68
2023/06/18 05:35:36;;;;;;;11.85;10.85;;;19.80;89.80;;;21.40;46.68;97695.34;5200386;28;20229;-67
2023/06/18 05:38:09;;;;;;;10.75;9.75;;;19.80;89.10;;;21.40;47.31;97703.16;5198841;28;20272;-68
2023/06/18 05:40:42;;;;;;;11.40;10.35;;;19.60;90.30;;;21.24;46.99;97706.41;5200793;28;20229;-67
2023/06/18 05:43:17;;;;;;;11.10;10.20;;;19.50;90.00;;;21.43;46.75;97707.53;5199253;28;20218;-67
2023/06/18 05:45:50;;;;;;;10.60;9.80;;;19.50;90.00;;;21.26;47.36;97702.97;5198484;28;20736;-68
2023/06/18 05:48:24;;;;;;;9.95;9.13;;;19.40;90.30;;;21.45;47.32;97701.50;5200558;28;20271;-67
2023/06/18 05:50:57;;;;;;;11.52;10.55;;;19.50;90.60;;;21.23;47.62;97708.16;5199755;28;21374;-65
2023/06/18 05:53:30;;;;;;;11.00;10.10;;;19.30;90.50;;;20.98;48.11;97714.75;5202650;28;20253;-67
2023/06/18 05:56:04;;;;;;;11.43;10.40;;;19.10;90.70;;;21.06;47.80;97713.13;5191410;28;20580;-67
2023/06/18 05:58:38;;;;;;;10.88;10.02;;;19.10;90.80;;;21.07;47.68;97714.88;5195434;28;20222;-67
2023/06/18 06:01:11;;;;;;;11.70;10.70;;;19.10;91.00;;;21.18;48.14;97708.94;5193477;28;20285;-67
2023/06/18 06:03:45;;;;;;;11.32;10.45;;;19.30;90.80;;;21.23;47.97;97702.94;5195294;28;20368;-67
2023/06/18 06:06:19;;;;;;;11.32;10.30;;;19.20;90.90;;;21.24;47.81;97706.41;5191174;28;20234;-67
2023/06/18 06:08:52;;;;;;;11.88;10.90;;;19.20;91.00;;;21.37;47.63;97703.13;5196890;28;20800;-67
2023/06/18 06:11:25;;;;;;;11.20;10.30;;;19.20;91.00;;;21.56;47.48;97705.09;5196087;28;20222;-67
2023/06/18 06:14:00;;;;;;;11.52;10.63;;;19.50;90.80;;;21.58;47.53;97707.72;5193171;28;20225;-67
2023/06/18 06:16:33;;;;;;;11.80;10.85;;;19.70;90.50;;;21.97;46.26;97702.03;5191179;28;20261;-68
2023/06/18 06:19:07;;;;;;;10.52;9.60;;;20.20;88.70;;;22.67;45.08;97706.97;5205314;28;20222;-67
2023/06/18 06:21:40;;;;;;;11.45;10.45;;;20.90;86.90;;;23.11;43.52;97708.13;5209203;28;20226;-67
2023/06/18 06:24:13;;;;;;;11.25;10.35;;;21.10;85.20;;;23.28;43.05;97714.28;5206029;28;20233;-66
2023/06/18 06:26:47;;;;;;;11.52;10.63;;;21.20;84.90;;;23.68;42.77;97704.00;5196021;28;20221;-67
2023/06/18 06:29:21;;;;;;;10.93;10.02;;;21.60;85.40;;;23.86;42.65;97705.78;5194197;28;20218;-66
2023/06/18 06:31:55;;;;;;;10.88;10.07;;;21.80;84.10;;;24.27;42.05;97707.59;5193755;28;20306;-67
2023/06/18 06:34:29;;;;;;;11.43;10.52;;;22.10;83.00;;;24.75;40.78;97699.72;5195699;28;20233;-67
2023/06/18 06:37:02;;;;;;;11.20;10.35;;;22.50;82.20;;;25.11;39.83;97694.41;5194760;28;20249;-67
2023/06/18 06:39:35;;;;;;;10.88;9.98;;;22.70;80.70;;;25.44;39.41;97703.06;5197572;28;20712;-67
2023/06/18 06:42:10;;;;;;;10.60;9.70;;;23.00;80.30;;;25.75;38.30;97702.88;5190578;28;20222;-67
2023/06/18 06:44:44;;;;;;;11.10;10.20;;;23.00;80.30;;;25.89;38.11;97700.22;5193469;28;20232;-67
2023/06/18 06:47:18;;;;;;;10.20;9.40;;;23.30;78.30;;;26.20;37.78;97695.63;5187422;28;20593;-67
2023/06/18 06:49:51;;;;;;;10.10;9.30;;;23.90;77.20;;;26.75;36.66;97695.16;5195984;28;20719;-67
2023/06/18 06:52:25;;;;;;;10.25;9.45;;;24.20;76.10;;;27.27;36.10;97694.63;5188874;28;20233;-69
2023/06/18 06:54:58;;;;;;;9.93;9.20;;;24.60;75.10;;;27.23;35.40;97687.66;5190929;28;20229;-69
2023/06/18 06:57:32;;;;;;;9.57;8.90;;;24.50;74.10;;;27.54;35.59;97696.03;5189382;28;20518;-67
2023/06/18 07:00:10;;;;;;;10.90;10.10;;;24.60;74.40;;;27.81;35.13;97686.94;5193919;28;20232;-68
2023/06/18 07:02:43;;;;;;;9.45;8.75;;;25.00;73.50;;;27.99;34.60;97690.19;5196260;28;20225;-68
2023/06/18 07:05:17;;;;;;;11.00;10.10;;;25.30;72.70;;;27.89;35.16;97693.81;5193833;28;20232;-69
2023/06/18 07:07:50;;;;;;;10.57;9.55;;;25.60;72.20;;;28.01;34.44;97685.75;5197281;28;20255;-69
2023/06/18 07:10:23;;;;;;;9.82;9.13;;;25.60;71.60;;;28.18;34.90;97686.34;5195757;28;20275;-69
2023/06/18 07:12:56;;;;;;;9.93;9.23;;;25.70;71.20;;;28.36;34.22;97681.69;5199683;28;20608;-68
2023/06/18 07:15:32;;;;;;;9.77;9.07;;;26.00;70.10;;;28.67;32.92;97682.94;5195815;28;20226;-68
2023/06/18 07:18:05;;;;;;;9.60;8.90;;;26.30;68.90;;;28.95;31.61;97680.63;5198722;28;20231;-69
2023/06/18 07:20:38;;;;;;;9.27;8.60;;;26.50;66.00;;;29.02;32.23;97691.94;5195353;28;20591;-68
2023/06/18 07:23:11;;;;;;;9.50;8.77;;;26.50;67.10;;;29.28;32.45;97687.94;5197997;28;20349;-68
2023/06/18 07:25:45;;;;;;;9.98;9.05;;;26.70;67.50;;;29.34;32.46;97691.31;5193570;28;20221;-69
2023/06/18 07:28:18;;;;;;;9.63;8.82;;;26.90;67.30;;;29.58;31.87;97687.28;5194922;28;20252;-68
2023/06/18 07:30:52;;;;;;;9.48;8.77;;;27.30;66.00;;;29.48;32.49;97693.66;5198765;28;20661;-69
2023/06/18 07:33:26;;;;;;;9.48;8.73;;;27.40;66.70;;;29.82;31.56;97693.81;5199069;28;20782;-69
2023/06/18 07:35:59;;;;;;;9.65;8.93;;;27.50;65.40;;;30.28;30.78;97691.91;5197732;28;20225;-68
2023/06/18 07:38:32;;;;;;;9.18;8.48;;;28.20;64.70;;;30.61;30.58;97692.81;5192264;28;20229;-69
2023/06/18 07:41:05;;;;;;;9.32;8.73;;;28.40;64.20;;;30.57;30.63;97685.03;5194175;28;20221;-68
2023/06/18 07:43:40;;;;;;;8.60;8.00;;;28.40;63.70;;;30.78;30.49;97684.44;5190154;28;20236;-70
2023/06/18 07:46:15;;;;;;;9.55;8.68;;;28.60;63.70;;;30.82;30.52;97677.34;5188952;28;20232;-67
2023/06/18 07:48:49;;;;;;;9.27;8.68;;;28.60;64.00;;;31.20;30.26;97681.56;5192794;28;20247;-68
2023/06/18 07:51:22;;;;;;;9.70;9.00;;;28.90;63.80;;;31.44;30.20;97685.31;5193485;28;20226;-68
2023/06/18 07:53:55;;;;;;;8.63;8.02;;;29.10;63.90;;;31.53;29.77;97678.88;5187850;28;20286;-67
2023/06/18 07:56:29;;;;;;;9.75;9.05;;;29.30;63.40;;;31.75;29.06;97685.25;5191303;28;20261;-68
2023/06/18 07:59:03;;;;;;;8.40;7.80;;;29.30;62.10;;;31.84;29.25;97684.97;5188633;28;20700;-68
2023/06/18 08:01:38;;;;;;;8.63;7.97;;;29.50;61.40;;;32.46;27.67;97683.91;5194166;28;20217;-70
2023/06/18 08:04:11;;;;;;;9.13;8.43;;;29.70;60.70;;;32.93;27.61;97675.22;5189710;28;20227;-67
2023/06/18 08:06:48;;;;;;;8.35;7.75;;;30.20;60.00;;;33.20;26.35;97668.13;5190553;28;20225;-68
2023/06/18 08:09:21;;;;;;;8.45;7.85;;;30.30;59.30;;;33.20;27.55;97671.63;5187419;28;20229;-67
2023/06/18 08:11:55;;;;;;;8.20;7.60;;;30.40;60.10;;;33.11;27.19;97668.44;5193034;28;20271;-67
2023/06/18 08:14:31;;;;;;;8.52;7.80;;;30.50;59.70;;;33.27;27.00;97668.75;5189389;28;20228;-68
2023/06/18 08:17:06;;;;;;;8.35;7.75;;;30.50;59.30;;;33.67;25.73;97669.91;5189437;28;20274;-68
2023/06/18 08:19:39;;;;;;;7.68;7.07;;;30.60;58.70;;;33.69;25.18;97665.41;5194904;28;20786;-68
2023/06/18 08:22:12;;;;;;;8.35;7.72;;;30.70;58.00;;;33.52;25.80;97660.75;5192389;28;20232;-67
2023/06/18 08:24:47;;;;;;;8.55;7.85;;;31.10;58.30;;;33.74;25.88;97666.97;5190844;28;20234;-68
2023/06/18 08:27:20;;;;;;;8.40;7.70;;;31.40;57.10;;;33.05;23.62;97664.25;5189645;28;20252;-68
2023/06/18 08:29:53;;;;;;;7.47;6.97;;;30.90;54.20;;;33.16;25.00;97666.47;5190012;28;20307;-68
2023/06/18 08:32:28;;;;;;;7.47;6.97;;;31.00;55.00;;;33.26;24.74;97659.06;5189674;28;20229;-68
2023/06/18 08:35:02;;;;;;;7.63;7.13;;;31.50;53.60;;;33.14;24.35;97666.56;5188762;28;20224;-68
2023/06/18 08:37:36;;;;;;;7.65;7.05;;;31.60;52.80;;;32.93;23.34;97656.69;5192912;28;20225;-68
2023/06/18 08:40:14;;;;;;;7.63;7.03;;;31.20;52.00;;;33.22;23.40;97658.28;5187926;28;20307;-67
2023/06/18 08:42:47;;;;;;;7.32;6.72;;;31.70;51.90;;;33.58;20.62;97661.38;5186198;28;20232;-68
2023/06/18 08:45:38;;;;;;;7.15;6.55;;;32.30;48.60;;;33.77;19.38;97661.53;5190940;28;20311;-68
2023/06/18 08:48:13;;;;;;;7.05;6.53;;;32.50;46.30;;;33.50;18.79;97652.81;5185707;28;20932;-68
2023/06/18 08:51:05;;;;;;;7.15;6.60;;;32.20;45.20;;;32.74;20.25;97657.34;5190016;28;20233;-68
2023/06/18 08:53:43;;;;;;;7.32;6.60;;;31.30;47.00;;;32.69;20.88;97661.94;5186055;28;20229;-67
2023/06/18 08:56:19;;;;;;;8.05;7.45;;;31.20;47.80;;;32.82;22.06;97661.50;5189985;28;20233;-68
2023/06/18 08:58:57;;;;;;;6.90;6.40;;;31.70;48.80;;;33.02;21.66;97655.53;5189273;28;20227;-68
2023/06/18 09:01:32;;;;;;;7.85;6.90;;;31.90;48.80;;;32.57;22.70;97658.88;5194018;28;20275;-68
2023/06/18 09:04:07;;;;;;;7.63;7.10;;;31.80;49.20;;;32.67;22.01;97661.13;5191778;28;20244;-68
2023/06/18 09:06:41;;;;;;;7.18;6.57;;;31.70;49.40;;;32.85;21.40;97654.34;5194200;28;20232;-68
2023/06/18 09:09:15;;;;;;;7.63;6.93;;;31.80;48.40;;;32.64;21.31;97658.59;5192408;28;20217;-68
2023/06/18 09:11:48;;;;;;;7.72;7.07;;;31.80;47.90;;;31.85;22.76;97659.41;5193690;28;20906;-68
2023/06/18 09:14:21;;;;;;;7.93;7.32;;;31.30;49.00;;;32.42;21.96;97657.56;5195050;28;20221;-68
2023/06/18 09:16:54;;;;;;;7.93;7.38;;;31.50;48.90;;;32.83;22.13;97652.66;5188039;28;20225;-68
2023/06/18 09:19:29;;;;;;;7.53;6.93;;;31.90;48.70;;;32.87;21.39;97641.03;5195865;28;20226;-68
2023/06/18 09:22:14;;;;;;;7.65;7.05;;;32.00;48.10;;;32.64;21.85;97640.06;5196091;28;20647;-68
2023/06/18 09:24:47;;;;;;;7.80;7.10;;;31.70;48.60;;;32.87;21.54;97651.63;5189673;28;20225;-68
2023/06/18 09:27:20;;;;;;;8.10;7.50;;;31.90;48.40;;;32.91;21.71;97647.97;5191140;28;20216;-68
2023/06/18 09:29:54;;;;;;;7.40;6.80;;;32.00;48.20;;;32.78;21.78;97641.38;5189518;28;20228;-68
2023/06/18 09:32:27;;;;;;;8.02;7.22;;;31.80;48.20;;;33.05;21.21;97643.06;5195915;28;20825;-68
2023/06/18 09:35:13;;;;;;;7.07;6.57;;;32.20;47.60;;;33.13;21.65;97630.34;5196277;28;20339;-68
2023/06/18 09:37:47;;;;;;;7.70;7.10;;;32.40;48.40;;;33.27;22.27;97635.16;5190788;28;20342;-68
2023/06/18 09:40:22;;;;;;;7.57;6.97;;;32.60;49.10;;;33.01;22.16;97638.78;5196530;28;20685;-68
2023/06/18 09:43:02;;;;;;;7.15;6.55;;;32.20;48.80;;;33.04;20.88;97640.44;5196328;28;20251;-69
2023/06/18 09:45:35;;;;;;;6.47;6.07;;;32.10;47.10;;;33.10;21.24;97633.13;5196810;28;20319;-69
2023/06/18 09:48:09;;;;;;;6.70;6.20;;;32.20;47.30;;;33.15;21.19;97628.53;5201299;28;20229;-68
2023/06/18 09:50:46;;;;;;;6.78;6.28;;;32.20;46.90;;;33.18;21.05;97630.19;5192751;28;20633;-69
2023/06/18 09:53:19;;;;;;;6.68;6.18;;;32.20;46.50;;;33.12;20.33;97633.94;5191698;28;20472;-68
2023/06/18 09:55:53;;;;;;;6.72;6.13;;;32.40;45.30;;;32.93;19.81;97633.72;5195704;28;20224;-68
2023/06/18 09:58:41;;;;;;;7.13;6.53;;;32.40;44.60;;;32.67;20.66;97631.16;5196808;28;20231;-69
2023/06/18 10:01:16;;;;;;;6.80;6.20;;;31.80;45.70;;;32.63;20.30;97627.75;5202378;28;20594;-68
2023/06/18 10:03:49;;;;;;;7.00;6.50;;;31.70;45.50;;;32.62;20.72;97625.13;5194293;28;20822;-69
2023/06/18 10:06:24;;;;;;;6.88;6.32;;;31.60;46.20;;;32.71;20.96;97624.84;5198531;28;20842;-68
2023/06/18 10:08:59;;;;;;;7.25;6.65;;;31.50;46.40;;;32.78;20.83;97623.69;5201207;28;20217;-68
2023/06/18 10:11:33;;;;;;;7.20;6.60;;;31.80;46.50;;;32.98;20.45;97617.66;5199761;28;20232;-68
2023/06/18 10:14:11;;;;;;;7.03;6.47;;;32.10;46.60;;;33.07;20.99;97612.03;5196008;28;20283;-68
2023/06/18 10:16:51;;;;;;;7.10;6.40;;;32.30;46.10;;;33.15;20.49;97609.97;5202058;28;20283;-68
2023/06/18 10:19:27;;;;;;;7.25;6.65;;;32.30;46.50;;;32.88;20.53;97616.25;5196917;28;20656;-68
2023/06/18 10:22:04;;;;;;;7.15;6.65;;;31.90;46.30;;;32.80;20.59;97613.91;5201958;28;20225;-68
2023/06/18 10:24:44;;;;;;;6.97;6.40;;;31.90;45.50;;;32.61;20.17;97608.41;5196349;28;20701;-69
2023/06/18 10:27:18;;;;;;;7.07;6.40;;;31.80;45.50;;;32.61;19.92;97613.69;5202856;28;20725;-67
2023/06/18 10:29:52;;;;;;;7.25;6.65;;;31.50;45.30;;;32.68;20.87;97614.31;5197426;28;20260;-67
2023/06/18 10:32:26;;;;;;;6.72;6.22;;;31.70;46.00;;;32.59;20.57;97620.81;5199356;28;20264;-67
2023/06/18 10:35:01;;;;;;;6.88;6.38;;;31.60;45.30;;;32.41;21.30;97616.16;5203112;28;20233;-67
2023/06/18 10:37:36;;;;;;;7.30;6.70;;;31.50;46.70;;;32.44;21.24;97608.09;5202928;28;20224;-67
2023/06/18 10:40:12;;;;;;;7.63;7.10;;;31.60;46.20;;;32.48;21.46;97602.69;5192285;28;20295;-67